createdAt,value
2019-01-19T00:01:01.353Z,16.45
2019-01-19T00:03:43.174Z,16.20
2019-01-19T00:06:30.581Z,17.40
2019-01-19T00:09:18.598Z,15.88
2019-01-19T00:12:09.696Z,16.42
2019-01-19T00:14:46.351Z,16.37
2019-01-19T00:17:43.211Z,16.87
2019-01-19T00:20:34.536Z,18.62
2019-01-19T00:23:12.390Z,19.02
2019-01-19T00:26:03.138Z,18.92
2019-01-19T00:28:34.172Z,17.80
2019-01-19T00:31:05.700Z,17.25
2019-01-19T00:34:09.009Z,18.85
2019-01-19T00:36:47.354Z,16.02
2019-01-19T00:39:53.678Z,17.57
2019-01-19T00:42:28.242Z,17.17
2019-01-19T00:45:06.880Z,16.35
2019-01-19T00:47:42.347Z,15.18
2019-01-19T00:50:45.779Z,16.37
2019-01-19T00:53:19.463Z,16.42
2019-01-19T00:56:13.711Z,17.37
2019-01-19T00:59:10.866Z,17.40
2019-01-19T01:01:57.446Z,16.87
2019-01-19T01:04:57.910Z,16.12
2019-01-19T01:07:52.578Z,16.00
2019-01-19T01:10:24.212Z,17.85
2019-01-19T01:13:00.189Z,18.02
2019-01-19T01:15:37.988Z,16.52
2019-01-19T01:18:29.290Z,16.95
2019-01-19T01:21:20.820Z,14.70
2019-01-19T01:23:57.801Z,15.90
2019-01-19T01:26:49.222Z,16.80
2019-01-19T01:29:31.764Z,17.05
2019-01-19T01:32:25.958Z,16.70
2019-01-19T01:35:02.732Z,16.30
2019-01-19T01:37:38.202Z,17.20
2019-01-19T01:40:38.525Z,16.80
2019-01-19T01:43:19.492Z,14.95
2019-01-19T01:46:13.714Z,16.25
2019-01-19T01:49:05.320Z,15.70
2019-01-19T01:51:56.453Z,14.55
2019-01-19T01:54:44.616Z,15.90
2019-01-19T01:57:19.671Z,15.53
2019-01-19T02:00:08.035Z,16.10
2019-01-19T02:03:03.515Z,15.95
2019-01-19T02:05:40.313Z,15.95
2019-01-19T02:08:27.098Z,15.50
2019-01-19T02:11:18.520Z,15.90
2019-01-19T02:13:50.247Z,15.68
2019-01-19T02:16:38.235Z,16.02
2019-01-19T02:19:24.073Z,16.90
2019-01-19T02:22:05.136Z,18.48
2019-01-19T02:24:52.335Z,17.60
2019-01-19T02:27:49.402Z,16.85
2019-01-19T02:30:30.128Z,16.60
2019-01-19T02:33:16.828Z,16.97
2019-01-19T02:36:11.003Z,16.32
2019-01-19T02:38:49.584Z,17.32
2019-01-19T02:41:28.933Z,17.48
2019-01-19T02:44:06.816Z,16.80
2019-01-19T02:46:54.827Z,16.35
2019-01-19T02:49:49.888Z,16.00
2019-01-19T02:52:40.559Z,17.00
2019-01-19T02:55:47.134Z,17.15
2019-01-19T02:58:38.131Z,15.80
2019-01-19T03:01:28.894Z,15.78
2019-01-19T03:04:15.846Z,15.85
2019-01-19T03:06:57.827Z,16.02
2019-01-19T03:09:55.129Z,15.25
2019-01-19T03:12:32.098Z,16.12
2019-01-19T03:15:07.161Z,15.85
2019-01-19T03:18:10.579Z,17.55
2019-01-19T03:21:00.353Z,17.05
2019-01-19T03:23:48.880Z,16.32
2019-01-19T03:26:20.987Z,17.55
2019-01-19T03:29:07.851Z,16.30
2019-01-19T03:31:55.970Z,16.73
2019-01-19T03:34:46.998Z,16.27
2019-01-19T03:40:31.406Z,15.05
2019-01-19T03:43:14.746Z,13.20
2019-01-19T03:46:14.986Z,15.70
2019-01-19T03:49:12.205Z,15.90
2019-01-19T03:51:44.978Z,13.80
2019-01-19T03:54:42.118Z,15.20
2019-01-19T03:57:32.730Z,16.32
2019-01-19T04:00:21.607Z,14.45
2019-01-19T04:03:08.240Z,15.00
2019-01-19T04:06:02.101Z,14.20
2019-01-19T04:08:50.114Z,15.70
2019-01-19T04:11:38.098Z,14.73
2019-01-19T04:14:29.145Z,15.72
2019-01-19T04:17:13.804Z,15.55
2019-01-19T04:19:54.929Z,14.00
2019-01-19T04:22:35.498Z,14.13
2019-01-19T04:25:22.194Z,14.55
2019-01-19T04:28:06.963Z,15.05
2019-01-19T04:30:35.908Z,14.58
2019-01-19T04:33:04.861Z,13.75
2019-01-19T04:35:33.836Z,14.10
2019-01-19T04:38:02.815Z,15.15
2019-01-19T04:40:31.782Z,15.35
2019-01-19T04:43:02.427Z,14.30
2019-01-19T04:45:31.358Z,14.30
2019-01-19T04:48:00.296Z,14.60
2019-01-19T04:50:29.330Z,14.30
2019-01-19T04:52:58.294Z,15.05
2019-01-19T04:55:27.303Z,14.98
2019-01-19T04:57:56.701Z,14.15
2019-01-19T05:00:26.103Z,14.13
2019-01-19T05:02:55.049Z,15.55
2019-01-19T05:05:24.332Z,14.58
2019-01-19T05:07:53.653Z,14.47
2019-01-19T05:10:22.663Z,14.70
2019-01-19T05:12:51.565Z,14.90
2019-01-19T05:15:21.180Z,14.47
2019-01-19T05:17:50.600Z,14.07
2019-01-19T05:20:19.557Z,15.20
2019-01-19T05:22:48.478Z,15.23
2019-01-19T05:25:17.481Z,14.05
2019-01-19T05:27:46.472Z,14.40
2019-01-19T05:30:16.442Z,14.40
2019-01-19T05:32:46.584Z,14.55
2019-01-19T05:35:15.989Z,14.90
2019-01-19T05:37:44.936Z,14.68
2019-01-19T05:40:13.879Z,15.03
2019-01-19T05:42:43.158Z,15.40
2019-01-19T05:45:21.397Z,14.20
2019-01-19T05:47:50.360Z,15.35
2019-01-19T05:50:20.707Z,14.95
2019-01-19T05:52:49.608Z,14.07
2019-01-19T05:55:18.953Z,14.73
2019-01-19T05:57:47.859Z,14.93
2019-01-19T06:00:22.307Z,14.98
2019-01-19T06:02:51.310Z,15.15
2019-01-19T06:05:20.219Z,15.03
2019-01-19T06:07:49.169Z,14.43
2019-01-19T06:10:18.108Z,15.20
2019-01-19T06:12:47.038Z,16.00
2019-01-19T06:15:16.136Z,14.75
2019-01-19T06:17:45.066Z,14.45
2019-01-19T06:20:15.149Z,13.62
2019-01-19T06:22:44.175Z,14.35
2019-01-19T06:25:13.705Z,15.05
2019-01-19T06:27:52.081Z,14.60
2019-01-19T06:30:21.937Z,15.13
2019-01-19T06:32:50.845Z,14.55
2019-01-19T06:35:19.793Z,14.47
2019-01-19T06:37:49.185Z,14.33
2019-01-19T06:40:18.608Z,15.10
2019-01-19T06:43:02.834Z,14.15
2019-01-19T06:45:50.744Z,14.05
2019-01-19T06:48:19.629Z,14.85
2019-01-19T06:50:48.526Z,14.85
2019-01-19T06:53:17.426Z,15.53
2019-01-19T06:55:46.404Z,14.68
2019-01-19T06:58:15.341Z,14.75
2019-01-19T07:00:44.637Z,14.23
2019-01-19T07:03:13.940Z,14.90
2019-01-19T07:05:42.830Z,14.45
2019-01-19T07:08:11.776Z,14.20
2019-01-19T07:10:41.205Z,14.60
2019-01-19T07:13:10.155Z,14.13
2019-01-19T07:15:45.643Z,15.15
2019-01-19T07:18:14.594Z,16.12
2019-01-19T07:20:49.811Z,16.40
2019-01-19T07:23:31.249Z,15.90
2019-01-19T07:26:00.185Z,14.98
2019-01-19T07:28:32.277Z,17.15
2019-01-19T07:31:01.210Z,14.60
2019-01-19T07:33:30.186Z,15.35
2019-01-19T07:35:59.956Z,14.75
2019-01-19T07:38:28.899Z,15.00
2019-01-19T07:40:57.838Z,15.65
2019-01-19T07:43:27.420Z,15.85
2019-01-19T07:45:56.368Z,14.60
2019-01-19T07:48:25.351Z,14.70
2019-01-19T07:50:54.292Z,14.28
2019-01-19T07:53:23.512Z,15.35
2019-01-19T07:55:53.380Z,15.58
2019-01-19T07:58:36.618Z,15.18
2019-01-19T08:01:05.641Z,15.70
2019-01-19T08:03:40.852Z,15.43
2019-01-19T08:06:10.150Z,15.63
2019-01-19T08:09:12.272Z,15.95
2019-01-19T08:11:41.262Z,15.30
2019-01-19T08:14:11.025Z,15.40
2019-01-19T08:16:40.109Z,17.27
2019-01-19T08:19:09.048Z,15.53
2019-01-19T08:21:40.101Z,15.95
2019-01-19T08:24:09.375Z,17.35
2019-01-19T08:26:38.350Z,17.45
2019-01-19T08:29:14.176Z,17.12
2019-01-19T08:31:43.244Z,16.73
2019-01-19T08:34:12.213Z,15.13
2019-01-19T08:36:41.583Z,18.75
2019-01-19T08:39:10.981Z,17.17
2019-01-19T08:41:39.982Z,18.77
2019-01-19T08:44:08.920Z,18.20
2019-01-19T08:46:57.015Z,18.82
2019-01-19T08:49:34.966Z,17.42
2019-01-19T08:52:04.349Z,18.23
2019-01-19T08:54:55.516Z,16.70
2019-01-19T08:57:24.813Z,17.90
2019-01-19T08:59:53.726Z,17.92
2019-01-19T09:02:22.635Z,17.67
2019-01-19T09:04:51.637Z,18.00
2019-01-19T09:07:35.978Z,16.17
2019-01-19T09:10:05.236Z,17.27
2019-01-19T09:12:34.129Z,16.80
2019-01-19T09:15:03.380Z,17.25
2019-01-19T09:17:32.347Z,16.00
2019-01-19T09:20:01.267Z,14.95
2019-01-19T09:23:12.985Z,16.00
2019-01-19T09:25:41.946Z,15.45
2019-01-19T09:28:16.041Z,14.67
2019-01-19T09:30:48.305Z,15.68
2019-01-19T09:33:36.840Z,15.48
2019-01-19T09:36:26.328Z,15.07
2019-01-19T09:39:00.502Z,15.85
2019-01-19T09:41:29.423Z,15.63
2019-01-19T09:44:37.186Z,16.23
2019-01-19T09:50:17.435Z,15.05
2019-01-19T09:52:46.713Z,15.45
2019-01-19T09:55:20.937Z,15.07
2019-01-19T09:58:08.965Z,16.93
2019-01-19T10:00:45.402Z,15.27
2019-01-19T10:03:09.367Z,15.90
2019-01-19T10:05:38.343Z,14.60
2019-01-19T10:08:07.610Z,14.38
2019-01-19T10:10:37.426Z,14.68
2019-01-19T10:13:06.336Z,14.70
2019-01-19T10:16:01.713Z,14.57
2019-01-19T10:18:33.889Z,14.80
2019-01-19T10:21:08.934Z,13.77
2019-01-19T10:23:47.132Z,14.70
2019-01-19T10:26:16.725Z,14.10
2019-01-19T10:28:58.385Z,14.43
2019-01-19T10:31:27.362Z,14.00
2019-01-19T10:33:56.647Z,13.10
2019-01-19T10:36:25.617Z,12.50
2019-01-19T10:38:54.542Z,14.53
2019-01-19T10:41:23.780Z,13.80
2019-01-19T10:43:52.682Z,13.97
2019-01-19T10:46:21.594Z,12.83
2019-01-19T10:52:28.884Z,12.77
2019-01-19T10:54:58.179Z,12.20
2019-01-19T10:57:40.233Z,14.20
2019-01-19T11:00:11.341Z,15.60
2019-01-19T11:02:44.180Z,19.33
2019-01-19T11:05:23.255Z,12.60
2019-01-19T11:07:54.372Z,12.80
2019-01-19T11:16:56.683Z,12.70
2019-01-19T11:19:25.982Z,12.18
2019-01-19T11:21:55.337Z,12.90
2019-01-19T11:24:24.612Z,12.60
2019-01-19T11:26:58.944Z,13.30
2019-01-19T11:29:34.239Z,12.70
2019-01-19T11:32:03.251Z,12.40
2019-01-19T11:34:32.114Z,12.43
2019-01-19T11:37:01.141Z,13.40
2019-01-19T11:39:30.060Z,14.00
2019-01-19T11:41:58.987Z,15.00
2019-01-19T11:44:27.955Z,13.57
2019-01-19T11:46:56.898Z,13.53
2019-01-19T11:49:35.707Z,13.20
2019-01-19T11:52:04.637Z,13.00
2019-01-19T11:54:47.080Z,12.63
2019-01-19T12:00:28.546Z,13.60
2019-01-19T12:02:57.446Z,13.83
2019-01-19T12:05:26.335Z,13.80
2019-01-19T12:08:04.898Z,14.17
2019-01-19T12:10:33.833Z,13.47
2019-01-19T12:13:15.016Z,13.60
2019-01-19T12:15:43.921Z,14.53
2019-01-19T12:18:12.838Z,15.07
2019-01-19T12:20:45.867Z,14.90
2019-01-19T12:23:16.477Z,15.40
2019-01-19T12:25:45.501Z,15.73
2019-01-19T12:28:14.405Z,15.90
2019-01-19T12:30:43.334Z,15.30
2019-01-19T12:33:12.253Z,14.27
2019-01-19T12:35:41.245Z,15.50
2019-01-19T12:38:10.156Z,14.07
2019-01-19T12:41:03.506Z,15.45
2019-01-19T12:43:32.408Z,14.80
2019-01-19T12:46:05.856Z,15.70
2019-01-19T12:48:34.773Z,14.80
2019-01-19T12:51:04.778Z,16.20
2019-01-19T12:53:33.680Z,16.20
2019-01-19T12:56:02.645Z,16.82
2019-01-19T12:58:31.553Z,14.07
2019-01-19T13:01:00.869Z,15.73
2019-01-19T13:03:29.815Z,16.23
2019-01-19T13:06:04.809Z,17.60
2019-01-19T13:08:34.533Z,15.17
2019-01-19T13:11:22.554Z,14.93
2019-01-19T13:13:51.869Z,16.57
2019-01-19T13:16:41.621Z,15.87
2019-01-19T13:19:18.816Z,16.70
2019-01-19T13:22:05.751Z,18.17
2019-01-19T13:24:52.652Z,17.00
2019-01-19T13:27:46.787Z,17.40
2019-01-19T13:30:25.207Z,15.40
2019-01-19T13:33:06.355Z,17.50
2019-01-19T13:36:21.154Z,17.30
2019-01-19T13:39:23.163Z,18.33
2019-01-19T13:41:59.857Z,15.67
2019-01-19T13:45:04.947Z,15.47
2019-01-19T13:48:01.329Z,16.83
2019-01-19T13:50:38.185Z,17.03
2019-01-19T13:53:38.564Z,16.93
2019-01-19T13:56:17.370Z,17.20
2019-01-19T13:59:23.505Z,17.93
2019-01-19T14:02:11.778Z,17.80
2019-01-19T14:04:59.663Z,18.23
2019-01-19T14:07:50.459Z,17.00
2019-01-19T14:10:44.871Z,16.50
2019-01-19T14:13:31.503Z,17.70
2019-01-19T14:16:04.812Z,16.40
2019-01-19T14:18:43.320Z,16.50
2019-01-19T14:21:34.493Z,17.03
2019-01-19T14:24:22.478Z,17.57
2019-01-19T14:27:10.384Z,17.63
2019-01-19T14:30:00.169Z,17.27
2019-01-19T14:32:51.144Z,15.17
2019-01-19T14:35:39.804Z,15.67
2019-01-19T14:38:28.739Z,15.87
2019-01-19T14:41:11.437Z,16.30
2019-01-19T14:43:56.138Z,15.27
2019-01-19T14:46:44.564Z,16.77
2019-01-19T14:49:44.096Z,15.63
2019-01-19T14:52:39.923Z,14.87
2019-01-19T14:55:30.984Z,14.90
2019-01-19T14:58:25.927Z,15.73
2019-01-19T15:00:58.869Z,15.33
2019-01-19T15:03:50.123Z,14.40
2019-01-19T15:06:37.178Z,14.70
2019-01-19T15:09:24.746Z,14.80
2019-01-19T15:11:58.164Z,15.50
2019-01-19T15:14:47.813Z,16.07
2019-01-19T15:17:37.767Z,16.27
2019-01-19T15:20:27.811Z,14.53
2019-01-19T15:23:18.199Z,14.27
2019-01-19T15:25:55.837Z,16.30
2019-01-19T15:28:53.101Z,14.57
2019-01-19T15:31:25.076Z,14.57
2019-01-19T15:34:16.174Z,15.20
2019-01-19T15:36:53.670Z,13.30
2019-01-19T15:39:40.464Z,13.43
2019-01-19T15:42:27.190Z,14.73
2019-01-19T15:45:06.899Z,15.83
2019-01-19T15:48:04.775Z,14.63
2019-01-19T15:51:27.822Z,15.13
2019-01-19T15:54:09.880Z,12.63
2019-01-19T15:56:56.534Z,14.13
2019-01-19T15:59:47.721Z,14.70
2019-01-19T16:02:51.087Z,14.00
2019-01-19T16:05:57.596Z,13.63
2019-01-19T16:08:54.940Z,14.70
2019-01-19T16:11:46.724Z,16.03
2019-01-19T16:14:33.817Z,14.07
2019-01-19T16:17:21.795Z,17.83
2019-01-19T16:20:08.672Z,14.97
2019-01-19T16:23:01.785Z,15.10
2019-01-19T16:26:02.150Z,14.10
2019-01-19T16:28:50.069Z,14.57
2019-01-19T16:31:40.318Z,15.13
2019-01-19T16:34:15.965Z,16.05
2019-01-19T16:37:02.970Z,15.23
2019-01-19T16:39:55.993Z,13.80
2019-01-19T16:42:32.776Z,15.35
2019-01-19T16:45:29.761Z,14.10
2019-01-19T16:48:24.241Z,14.30
2019-01-19T16:51:11.254Z,15.80
2019-01-19T16:54:05.148Z,15.32
2019-01-19T16:56:53.977Z,15.93
2019-01-19T16:59:44.882Z,14.30
2019-01-19T17:02:41.699Z,15.85
2019-01-19T17:05:36.383Z,15.60
2019-01-19T17:08:28.761Z,15.80
2019-01-19T17:11:17.670Z,16.73
2019-01-19T17:14:15.505Z,14.87
2019-01-19T17:17:09.290Z,16.90
2019-01-19T17:20:09.162Z,16.87
2019-01-19T17:22:57.504Z,15.15
2019-01-19T17:25:44.466Z,16.65
2019-01-19T17:28:43.440Z,18.30
2019-01-19T17:31:15.280Z,18.62
2019-01-19T17:34:06.027Z,18.40
2019-01-19T17:36:51.077Z,18.30
2019-01-19T17:39:45.302Z,18.98
2019-01-19T17:42:19.549Z,17.17
2019-01-19T17:45:09.412Z,18.65
2019-01-19T17:48:06.604Z,18.23
2019-01-19T17:50:51.678Z,19.40
2019-01-19T17:53:42.835Z,19.37
2019-01-19T17:56:30.815Z,20.68
2019-01-19T17:59:37.575Z,21.52
2019-01-19T18:02:28.537Z,21.68
2019-01-19T18:05:15.913Z,22.15
2019-01-19T18:08:02.790Z,20.82
2019-01-19T18:10:36.001Z,21.30
2019-01-19T18:13:32.881Z,20.23
2019-01-19T18:16:33.050Z,21.55
2019-01-19T18:19:16.055Z,21.20
2019-01-19T18:21:58.744Z,20.35
2019-01-19T18:24:52.627Z,22.40
2019-01-19T18:27:51.896Z,22.73
2019-01-19T18:30:32.343Z,21.23
2019-01-19T18:33:21.516Z,22.37
2019-01-19T18:36:09.966Z,20.92
2019-01-19T18:39:00.781Z,21.57
2019-01-19T18:41:35.967Z,21.45
2019-01-19T18:44:26.707Z,22.40
2019-01-19T18:47:13.239Z,23.42
2019-01-19T18:49:59.855Z,23.52
2019-01-19T18:52:33.241Z,21.80
2019-01-19T18:55:36.586Z,38.20
2019-01-19T18:58:22.933Z,29.87
2019-01-19T19:01:26.149Z,25.48
2019-01-19T19:04:17.257Z,26.50
2019-01-19T19:07:05.919Z,21.48
2019-01-19T19:10:02.066Z,21.30
2019-01-19T19:12:55.095Z,21.12
2019-01-19T19:15:47.004Z,20.25
2019-01-19T19:18:34.016Z,20.52
2019-01-19T19:21:09.675Z,19.10
2019-01-19T19:24:04.924Z,21.90
2019-01-19T19:26:59.091Z,19.48
2019-01-19T19:29:36.043Z,19.02
2019-01-19T19:32:42.791Z,20.65
2019-01-19T19:35:39.930Z,20.20
2019-01-19T19:38:31.152Z,20.15
2019-01-19T19:41:29.636Z,19.98
2019-01-19T19:44:17.853Z,19.35
2019-01-19T19:47:06.190Z,19.42
2019-01-19T19:49:40.115Z,19.90
2019-01-19T19:52:09.016Z,22.93
2019-01-19T19:54:37.903Z,20.80
2019-01-19T19:57:07.900Z,20.17
2019-01-19T19:59:37.299Z,20.60
2019-01-19T20:02:06.205Z,20.20
2019-01-19T20:04:42.809Z,21.07
2019-01-19T20:07:11.780Z,21.85
2019-01-19T20:09:41.124Z,19.75
2019-01-19T20:12:10.086Z,21.57
2019-01-19T20:14:39.144Z,22.77
2019-01-19T20:17:08.342Z,20.88
2019-01-19T20:19:37.294Z,21.35
2019-01-19T20:22:06.739Z,23.05
2019-01-19T20:24:35.695Z,21.80
2019-01-19T20:27:05.081Z,24.05
2019-01-19T20:29:34.767Z,21.15
2019-01-19T20:32:04.289Z,22.20
2019-01-19T20:34:33.239Z,21.05
2019-01-19T20:37:02.175Z,22.77
2019-01-19T20:39:31.197Z,21.52
2019-01-19T20:42:00.096Z,21.00
2019-01-19T20:44:31.708Z,20.97
2019-01-19T20:47:02.748Z,34.15
2019-01-19T20:49:39.508Z,25.60
2019-01-19T20:52:10.449Z,30.50
2019-01-19T20:54:40.250Z,25.32
2019-01-19T20:57:15.487Z,28.75
2019-01-19T20:59:44.856Z,25.55
2019-01-19T21:02:21.364Z,24.07
2019-01-19T21:04:50.288Z,23.50
2019-01-19T21:07:19.706Z,23.40
2019-01-19T21:09:48.744Z,23.83
2019-01-19T21:12:17.602Z,25.37
2019-01-19T21:14:46.512Z,26.40
2019-01-19T21:17:15.911Z,24.12
2019-01-19T21:20:12.357Z,23.45
2019-01-19T21:22:41.261Z,23.47
2019-01-19T21:25:10.714Z,23.15
2019-01-19T21:27:39.657Z,22.13
2019-01-19T21:30:21.702Z,23.52
2019-01-19T21:32:52.770Z,23.95
2019-01-19T21:35:22.417Z,25.37
2019-01-19T21:37:59.637Z,22.85
2019-01-19T21:40:28.552Z,26.40
2019-01-19T21:42:57.759Z,24.40
2019-01-19T21:45:27.072Z,25.80
2019-01-19T21:48:11.249Z,26.07
2019-01-19T21:50:40.235Z,25.77
2019-01-19T21:53:09.200Z,24.07
2019-01-19T21:55:38.115Z,24.15
2019-01-19T21:58:07.050Z,24.65
2019-01-19T22:00:38.380Z,24.35
2019-01-19T22:03:11.180Z,25.05
2019-01-19T22:05:40.216Z,24.50
2019-01-19T22:08:10.185Z,25.40
2019-01-19T22:10:46.123Z,24.75
2019-01-19T22:13:12.220Z,24.77
2019-01-19T22:15:41.493Z,24.15
2019-01-19T22:18:10.455Z,23.27
2019-01-19T22:20:39.422Z,23.10
2019-01-19T22:23:32.457Z,23.75
2019-01-19T22:26:01.801Z,22.87
2019-01-19T22:28:31.038Z,24.02
2019-01-19T22:31:00.443Z,22.52
2019-01-19T22:33:31.723Z,21.70
2019-01-19T22:36:01.019Z,23.00
2019-01-19T22:38:29.922Z,23.20
2019-01-19T22:40:58.864Z,23.83
2019-01-19T22:43:31.627Z,23.83
2019-01-19T22:46:01.038Z,24.50
2019-01-19T22:48:30.393Z,24.92
2019-01-19T22:51:00.037Z,23.50
2019-01-19T22:53:29.356Z,24.67
2019-01-19T22:55:58.360Z,23.12
2019-01-19T22:58:27.280Z,25.10
2019-01-19T23:01:21.795Z,26.07
2019-01-19T23:03:50.741Z,25.50
2019-01-19T23:06:19.660Z,24.95
2019-01-19T23:08:48.624Z,24.45
2019-01-19T23:11:17.569Z,26.80
2019-01-19T23:13:46.589Z,24.70
2019-01-19T23:16:15.883Z,25.55
2019-01-19T23:18:44.774Z,24.57
2019-01-19T23:21:13.697Z,25.97
2019-01-19T23:23:42.689Z,25.62
2019-01-19T23:26:11.892Z,24.12
2019-01-19T23:28:44.368Z,25.65
2019-01-19T23:31:13.977Z,26.42
2019-01-19T23:33:42.892Z,24.55
2019-01-19T23:36:11.977Z,23.77
2019-01-19T23:38:40.912Z,23.83
2019-01-19T23:41:09.840Z,25.05
2019-01-19T23:43:41.679Z,25.50
2019-01-19T23:46:10.588Z,25.52
2019-01-19T23:48:39.870Z,22.25
2019-01-19T23:51:08.859Z,23.65
2019-01-19T23:53:37.781Z,25.48
2019-01-19T23:56:07.063Z,26.87
2019-01-19T23:58:35.971Z,25.37
